createdAt,value
2018-05-16T00:00:06.685Z,11.84
2018-05-16T00:01:06.620Z,11.82
2018-05-16T00:02:06.558Z,11.87
2018-05-16T00:03:06.500Z,11.82
2018-05-16T00:04:06.428Z,11.82
2018-05-16T00:05:06.369Z,11.80
2018-05-16T00:06:06.308Z,11.82
2018-05-16T00:07:06.238Z,11.84
2018-05-16T00:08:06.178Z,11.88
2018-05-16T00:09:06.116Z,11.79
2018-05-16T00:10:06.060Z,11.91
2018-05-16T00:11:05.984Z,11.93
2018-05-16T00:12:05.922Z,11.99
2018-05-16T00:13:05.862Z,11.91
2018-05-16T00:14:05.793Z,11.88
2018-05-16T00:15:05.731Z,11.95
2018-05-16T00:16:05.667Z,11.96
2018-05-16T00:17:05.606Z,11.96
2018-05-16T00:18:05.544Z,11.87
2018-05-16T00:19:05.479Z,11.89
2018-05-16T00:20:05.418Z,11.93
2018-05-16T00:21:05.361Z,11.93
2018-05-16T00:22:05.287Z,11.80
2018-05-16T00:23:05.224Z,11.85
2018-05-16T00:24:05.161Z,11.88
2018-05-16T00:25:05.096Z,11.91
2018-05-16T00:26:05.034Z,11.93
2018-05-16T00:27:04.969Z,11.89
2018-05-16T00:28:04.907Z,11.82
2018-05-16T00:29:04.844Z,11.79
2018-05-16T00:30:04.780Z,11.85
2018-05-16T00:31:04.720Z,11.84
2018-05-16T00:32:04.652Z,11.79
2018-05-16T00:33:04.591Z,11.85
2018-05-16T00:34:04.527Z,11.76
2018-05-16T00:35:04.462Z,11.77
2018-05-16T00:36:04.397Z,11.88
2018-05-16T00:37:04.334Z,11.89
2018-05-16T00:38:04.272Z,11.87
2018-05-16T00:39:04.208Z,11.91
2018-05-16T00:40:04.146Z,11.89
2018-05-16T00:41:04.082Z,11.96
2018-05-16T00:42:04.017Z,11.87
2018-05-16T00:43:03.954Z,11.95
2018-05-16T00:44:03.891Z,11.93
2018-05-16T00:45:03.828Z,11.87
2018-05-16T00:46:03.765Z,11.93
2018-05-16T00:47:03.701Z,11.89
2018-05-16T00:48:03.641Z,11.87
2018-05-16T00:49:03.621Z,11.96
2018-05-16T00:50:03.509Z,11.91
2018-05-16T00:51:03.450Z,11.91
2018-05-16T00:52:03.383Z,11.91
2018-05-16T00:53:03.321Z,11.95
2018-05-16T00:54:03.259Z,11.91
2018-05-16T00:55:03.192Z,11.91
2018-05-16T00:56:03.131Z,11.91
2018-05-16T00:57:03.068Z,11.77
2018-05-16T00:58:03.001Z,11.84
2018-05-16T00:59:02.995Z,11.79
2018-05-16T01:00:02.876Z,11.77
2018-05-16T01:01:02.816Z,11.70
2018-05-16T01:02:02.748Z,11.85
2018-05-16T01:03:02.686Z,11.77
2018-05-16T01:04:02.624Z,11.80
2018-05-16T01:05:02.570Z,11.79
2018-05-16T01:06:02.498Z,11.77
2018-05-16T01:07:02.432Z,11.66
2018-05-16T01:08:02.370Z,11.70
2018-05-16T01:09:02.309Z,11.71
2018-05-16T01:10:02.242Z,11.76
2018-05-16T01:11:02.180Z,11.71
2018-05-16T01:12:02.119Z,11.76
2018-05-16T01:13:02.052Z,11.79
2018-05-16T01:14:01.987Z,11.82
2018-05-16T01:15:01.926Z,11.77
2018-05-16T01:16:01.865Z,11.80
2018-05-16T01:17:01.798Z,11.77
2018-05-16T01:18:01.744Z,11.88
2018-05-16T01:19:01.669Z,11.79
2018-05-16T01:20:01.606Z,11.80
2018-05-16T01:21:01.609Z,11.84
2018-05-16T01:22:01.483Z,11.84
2018-05-16T01:23:01.419Z,11.84
2018-05-16T01:24:01.354Z,11.80
2018-05-16T01:25:01.289Z,11.89
2018-05-16T01:26:01.224Z,11.84
2018-05-16T01:27:01.161Z,11.77
2018-05-16T01:28:01.101Z,11.73
2018-05-16T01:29:01.036Z,11.74
2018-05-16T01:30:00.969Z,11.76
2018-05-16T01:31:00.909Z,11.74
2018-05-16T01:32:00.847Z,11.84
2018-05-16T01:33:00.781Z,11.80
2018-05-16T01:34:00.717Z,11.93
2018-05-16T01:35:00.653Z,11.84
2018-05-16T01:36:00.591Z,11.84
2018-05-16T01:37:00.529Z,11.80
2018-05-16T01:38:00.463Z,11.82
2018-05-16T01:39:00.400Z,11.82
2018-05-16T01:40:00.351Z,11.82
2018-05-16T01:41:00.274Z,11.82
2018-05-16T01:42:00.205Z,11.77
2018-05-16T01:43:00.148Z,11.89
2018-05-16T01:44:00.084Z,11.89
2018-05-16T01:45:00.022Z,11.77
2018-05-16T01:45:59.956Z,11.77
2018-05-16T01:46:59.892Z,11.77
2018-05-16T01:47:59.830Z,11.96
2018-05-16T01:48:59.766Z,11.85
2018-05-16T01:49:59.705Z,11.93
2018-05-16T01:50:59.639Z,11.89
2018-05-16T01:51:59.578Z,11.96
2018-05-16T01:52:59.511Z,11.87
2018-05-16T01:53:59.450Z,11.91
2018-05-16T01:54:59.385Z,11.97
2018-05-16T01:55:59.324Z,11.97
2018-05-16T01:56:59.259Z,11.87
2018-05-16T01:57:59.195Z,11.91
2018-05-16T01:58:59.131Z,11.79
2018-05-16T01:59:59.070Z,11.88
2018-05-16T02:00:59.007Z,11.77
2018-05-16T02:01:58.940Z,11.76
2018-05-16T02:02:58.887Z,11.85
2018-05-16T02:03:58.815Z,11.79
2018-05-16T02:04:58.752Z,11.84
2018-05-16T02:05:58.688Z,11.74
2018-05-16T02:06:58.626Z,11.84
2018-05-16T02:07:58.561Z,11.84
2018-05-16T02:08:58.500Z,11.88
2018-05-16T02:09:58.437Z,11.95
2018-05-16T02:10:58.375Z,11.96
2018-05-16T02:11:58.307Z,11.95
2018-05-16T02:12:58.246Z,11.85
2018-05-16T02:13:58.182Z,11.96
2018-05-16T02:14:58.119Z,11.93
2018-05-16T02:15:58.055Z,11.79
2018-05-16T02:16:57.994Z,12.03
2018-05-16T02:17:57.929Z,12.03
2018-05-16T02:18:57.866Z,11.97
2018-05-16T02:19:57.802Z,11.87
2018-05-16T02:20:57.738Z,11.88
2018-05-16T02:21:57.675Z,11.88
2018-05-16T02:22:57.612Z,11.97
2018-05-16T02:23:57.549Z,11.89
2018-05-16T02:24:57.486Z,11.97
2018-05-16T02:25:57.423Z,11.95
2018-05-16T02:26:57.359Z,11.93
2018-05-16T02:27:57.296Z,11.93
2018-05-16T02:28:57.233Z,11.88
2018-05-16T02:29:57.168Z,11.97
2018-05-16T02:30:57.104Z,11.89
2018-05-16T02:31:57.044Z,11.82
2018-05-16T02:32:56.979Z,11.91
2018-05-16T02:33:56.917Z,11.77
2018-05-16T02:34:56.851Z,11.79
2018-05-16T02:35:56.790Z,11.93
2018-05-16T02:36:56.727Z,11.95
2018-05-16T02:37:56.662Z,11.82
2018-05-16T02:38:56.604Z,11.84
2018-05-16T02:39:56.536Z,11.79
2018-05-16T02:40:56.477Z,11.82
2018-05-16T02:41:56.406Z,11.87
2018-05-16T02:42:56.344Z,11.95
2018-05-16T02:43:56.285Z,11.82
2018-05-16T02:44:56.220Z,11.93
2018-05-16T02:45:56.155Z,11.88
2018-05-16T02:46:56.093Z,11.96
2018-05-16T02:47:56.031Z,11.87
2018-05-16T02:48:55.966Z,11.87
2018-05-16T02:49:55.904Z,11.95
2018-05-16T02:50:55.839Z,11.99
2018-05-16T02:51:55.777Z,11.93
2018-05-16T02:52:55.715Z,12.03
2018-05-16T02:53:55.649Z,11.99
2018-05-16T02:54:55.589Z,12.05
2018-05-16T02:55:55.531Z,12.00
2018-05-16T02:56:55.462Z,11.99
2018-05-16T02:57:55.397Z,11.99
2018-05-16T02:58:55.337Z,11.93
2018-05-16T02:59:55.271Z,11.99
2018-05-16T03:00:55.207Z,11.97
2018-05-16T03:01:55.143Z,11.89
2018-05-16T03:02:55.084Z,11.96
2018-05-16T03:03:55.015Z,11.97
2018-05-16T03:04:54.954Z,11.89
2018-05-16T03:05:54.894Z,11.96
2018-05-16T03:06:54.825Z,11.93
2018-05-16T03:07:54.765Z,11.96
2018-05-16T03:08:54.705Z,11.93
2018-05-16T03:09:54.636Z,11.96
2018-05-16T03:10:54.576Z,11.95
2018-05-16T03:11:54.511Z,11.95
2018-05-16T03:12:54.449Z,11.97
2018-05-16T03:13:54.382Z,11.93
2018-05-16T03:14:54.325Z,11.91
2018-05-16T03:15:54.257Z,11.88
2018-05-16T03:16:54.193Z,11.88
2018-05-16T03:17:54.134Z,11.89
2018-05-16T03:18:54.067Z,11.89
2018-05-16T03:19:54.002Z,11.93
2018-05-16T03:20:53.942Z,11.91
2018-05-16T03:21:53.874Z,11.97
2018-05-16T03:22:53.814Z,11.89
2018-05-16T03:23:53.755Z,11.93
2018-05-16T03:24:53.688Z,11.88
2018-05-16T03:25:53.623Z,11.93
2018-05-16T03:26:53.560Z,11.89
2018-05-16T03:27:53.499Z,11.85
2018-05-16T03:28:53.445Z,11.76
2018-05-16T03:29:53.371Z,11.88
2018-05-16T03:30:53.312Z,11.77
2018-05-16T03:31:53.245Z,11.77
2018-05-16T03:32:53.183Z,11.87
2018-05-16T03:33:53.118Z,11.88
2018-05-16T03:34:53.054Z,11.89
2018-05-16T03:35:52.988Z,11.91
2018-05-16T03:36:52.931Z,11.91
2018-05-16T03:37:52.864Z,11.88
2018-05-16T03:38:52.800Z,11.97
2018-05-16T03:39:52.741Z,11.91
2018-05-16T03:40:52.673Z,11.85
2018-05-16T03:41:52.609Z,11.89
2018-05-16T03:42:52.547Z,11.88
2018-05-16T03:43:52.481Z,11.91
2018-05-16T03:44:52.420Z,11.96
2018-05-16T03:45:52.356Z,11.85
2018-05-16T03:46:52.293Z,11.91
2018-05-16T03:47:52.228Z,11.97
2018-05-16T03:48:52.170Z,11.89
2018-05-16T03:49:52.104Z,11.96
2018-05-16T03:50:52.040Z,11.82
2018-05-16T03:51:52.023Z,11.77
2018-05-16T03:52:51.913Z,11.84
2018-05-16T03:53:51.851Z,11.89
2018-05-16T03:54:51.785Z,11.93
2018-05-16T03:55:51.722Z,11.89
2018-05-16T03:56:51.660Z,11.91
2018-05-16T03:57:51.595Z,11.91
2018-05-16T03:58:51.532Z,11.87
2018-05-16T03:59:51.469Z,11.84
2018-05-16T04:00:51.423Z,11.76
2018-05-16T04:01:51.344Z,11.82
2018-05-16T04:02:51.282Z,11.77
2018-05-16T04:03:51.215Z,11.74
2018-05-16T04:04:51.153Z,11.79
2018-05-16T04:05:51.089Z,11.79
2018-05-16T04:06:51.027Z,11.77
2018-05-16T04:07:50.962Z,11.87
2018-05-16T04:08:50.898Z,11.76
2018-05-16T04:09:50.835Z,11.79
2018-05-16T04:10:50.771Z,11.88
2018-05-16T04:11:50.710Z,11.97
2018-05-16T04:12:50.646Z,11.93
2018-05-16T04:13:50.593Z,11.93
2018-05-16T04:14:50.520Z,11.85
2018-05-16T04:15:50.454Z,11.95
2018-05-16T04:16:50.392Z,11.80
2018-05-16T04:17:50.327Z,11.80
2018-05-16T04:18:50.264Z,11.85
2018-05-16T04:19:50.202Z,11.84
2018-05-16T04:20:50.139Z,11.87
2018-05-16T04:21:50.073Z,11.96
2018-05-16T04:22:50.011Z,11.93
2018-05-16T04:23:49.949Z,11.91
2018-05-16T04:24:49.885Z,11.85
2018-05-16T04:25:49.822Z,11.99
2018-05-16T04:26:49.758Z,11.89
2018-05-16T04:27:49.694Z,11.85
2018-05-16T04:28:49.700Z,11.84
2018-05-16T04:29:49.564Z,11.79
2018-05-16T04:30:49.503Z,11.77
2018-05-16T04:31:49.440Z,11.82
2018-05-16T04:32:49.377Z,11.85
2018-05-16T04:33:49.312Z,11.88
2018-05-16T04:34:49.252Z,11.88
2018-05-16T04:35:49.187Z,11.89
2018-05-16T04:36:49.127Z,11.87
2018-05-16T04:37:49.056Z,11.85
2018-05-16T04:38:48.998Z,11.91
2018-05-16T04:39:48.933Z,11.89
2018-05-16T04:40:48.869Z,11.96
2018-05-16T04:41:48.901Z,11.88
2018-05-16T04:42:48.742Z,11.89
2018-05-16T04:43:48.682Z,11.97
2018-05-16T04:44:48.616Z,11.95
2018-05-16T04:45:48.552Z,11.93
2018-05-16T04:46:48.489Z,11.91
2018-05-16T04:47:48.427Z,11.95
2018-05-16T04:48:48.363Z,11.87
2018-05-16T04:49:48.297Z,11.95
2018-05-16T04:50:48.236Z,11.95
2018-05-16T04:51:48.175Z,11.95
2018-05-16T04:52:48.119Z,11.89
2018-05-16T04:53:48.045Z,11.88
2018-05-16T04:54:47.986Z,11.87
2018-05-16T04:55:47.918Z,11.88
2018-05-16T04:56:47.856Z,11.82
2018-05-16T04:57:47.791Z,11.85
2018-05-16T04:58:47.729Z,11.82
2018-05-16T04:59:47.666Z,11.93
2018-05-16T05:00:47.602Z,11.95
2018-05-16T05:01:47.539Z,11.93
2018-05-16T05:02:47.470Z,11.93
2018-05-16T05:03:47.411Z,11.87
2018-05-16T05:04:47.346Z,11.80
2018-05-16T05:05:47.286Z,11.96
2018-05-16T05:06:47.223Z,11.91
2018-05-16T05:07:47.158Z,11.93
2018-05-16T05:08:47.110Z,11.91
2018-05-16T05:09:47.031Z,12.00
2018-05-16T05:10:46.967Z,11.97
2018-05-16T05:11:46.905Z,11.91
2018-05-16T05:12:46.841Z,11.97
2018-05-16T05:13:46.776Z,11.95
2018-05-16T05:14:46.715Z,12.05
2018-05-16T05:15:46.650Z,12.00
2018-05-16T05:16:46.591Z,12.04
2018-05-16T05:17:46.524Z,11.99
2018-05-16T05:18:46.469Z,12.05
2018-05-16T05:19:46.400Z,11.99
2018-05-16T05:20:46.337Z,12.03
2018-05-16T05:21:46.270Z,12.04
2018-05-16T05:22:46.209Z,12.05
2018-05-16T05:23:46.145Z,12.04
2018-05-16T05:24:46.083Z,11.95
2018-05-16T05:25:46.019Z,12.10
2018-05-16T05:26:45.955Z,12.10
2018-05-16T05:27:45.893Z,12.10
2018-05-16T05:28:45.828Z,12.18
2018-05-16T05:29:45.767Z,12.17
2018-05-16T05:30:45.702Z,12.15
2018-05-16T05:31:45.639Z,12.08
2018-05-16T05:32:45.575Z,12.15
2018-05-16T05:33:45.510Z,12.21
2018-05-16T05:34:45.449Z,12.23
2018-05-16T05:35:45.385Z,12.26
2018-05-16T05:36:45.357Z,12.35
2018-05-16T05:37:45.259Z,12.36
2018-05-16T05:38:45.194Z,12.28
2018-05-16T05:39:45.134Z,12.25
2018-05-16T05:40:45.069Z,12.23
2018-05-16T05:41:45.005Z,12.25
2018-05-16T05:42:44.943Z,12.28
2018-05-16T05:43:44.878Z,12.36
2018-05-16T05:44:44.817Z,12.38
2018-05-16T05:45:44.753Z,12.33
2018-05-16T05:46:44.689Z,12.33
2018-05-16T05:47:44.629Z,12.33
2018-05-16T05:48:44.562Z,12.41
2018-05-16T05:49:44.500Z,12.46
2018-05-16T05:50:44.437Z,12.47
2018-05-16T05:51:44.373Z,12.33
2018-05-16T05:52:44.310Z,12.43
2018-05-16T05:53:44.246Z,12.50
2018-05-16T05:54:44.183Z,12.43
2018-05-16T05:55:44.121Z,12.44
2018-05-16T05:56:44.058Z,12.46
2018-05-16T05:57:43.992Z,12.44
2018-05-16T05:58:43.932Z,12.40
2018-05-16T05:59:43.868Z,12.50
2018-05-16T06:00:43.805Z,12.55
2018-05-16T06:01:43.741Z,12.50
2018-05-16T06:02:43.680Z,12.55
2018-05-16T06:03:43.615Z,12.58
2018-05-16T06:04:43.559Z,12.61
2018-05-16T06:05:43.488Z,12.63
2018-05-16T06:06:43.424Z,12.58
2018-05-16T06:07:43.363Z,12.55
2018-05-16T06:08:43.301Z,12.68
2018-05-16T06:09:43.238Z,12.71
2018-05-16T06:10:43.174Z,12.77
2018-05-16T06:11:43.108Z,12.69
2018-05-16T06:12:43.062Z,12.68
2018-05-16T06:13:42.990Z,12.73
2018-05-16T06:14:42.922Z,12.68
2018-05-16T06:15:42.862Z,12.63
2018-05-16T06:16:42.796Z,12.62
2018-05-16T06:17:42.735Z,12.76
2018-05-16T06:18:42.698Z,12.65
2018-05-16T06:19:42.717Z,12.68
2018-05-16T06:20:42.565Z,12.73
2018-05-16T06:21:42.534Z,12.66
2018-05-16T06:22:42.567Z,12.63
2018-05-16T06:23:42.410Z,12.68
2018-05-16T06:24:42.294Z,12.68
2018-05-16T06:25:42.229Z,12.68
2018-05-16T06:26:42.180Z,12.66
2018-05-16T06:27:42.103Z,12.76
2018-05-16T06:28:42.041Z,12.65
2018-05-16T06:29:41.978Z,12.71
2018-05-16T06:30:41.914Z,12.73
2018-05-16T06:31:41.857Z,12.80
2018-05-16T06:32:41.794Z,12.77
2018-05-16T06:33:41.725Z,12.73
2018-05-16T06:34:41.663Z,12.79
2018-05-16T06:35:41.604Z,12.86
2018-05-16T06:36:41.538Z,12.77
2018-05-16T06:37:41.473Z,12.81
2018-05-16T06:38:41.413Z,12.86
2018-05-16T06:39:41.350Z,12.80
2018-05-16T06:40:41.287Z,12.83
2018-05-16T06:41:41.222Z,12.84
2018-05-16T06:42:41.164Z,12.87
2018-05-16T06:43:41.097Z,12.91
2018-05-16T06:44:41.036Z,12.95
2018-05-16T06:45:40.970Z,12.91
2018-05-16T06:46:40.910Z,12.98
2018-05-16T06:47:40.849Z,12.99
2018-05-16T06:48:40.786Z,13.01
2018-05-16T06:49:40.720Z,13.08
2018-05-16T06:50:40.658Z,13.05
2018-05-16T06:51:40.594Z,12.95
2018-05-16T06:52:40.533Z,12.98
2018-05-16T06:53:40.472Z,12.99
2018-05-16T06:54:40.408Z,12.96
2018-05-16T06:55:40.345Z,12.95
2018-05-16T06:56:40.282Z,13.02
2018-05-16T06:57:40.219Z,13.06
2018-05-16T06:58:40.156Z,13.17
2018-05-16T06:59:40.095Z,13.05
2018-05-16T07:00:40.032Z,13.05
2018-05-16T07:01:39.970Z,13.13
2018-05-16T07:02:39.906Z,13.17
2018-05-16T07:03:39.845Z,13.08
2018-05-16T07:04:39.783Z,13.16
2018-05-16T07:05:39.719Z,13.17
2018-05-16T07:06:39.660Z,13.13
2018-05-16T07:07:39.593Z,13.14
2018-05-16T07:08:39.532Z,13.17
2018-05-16T07:09:39.466Z,13.20
2018-05-16T07:10:39.406Z,13.19
2018-05-16T07:11:39.342Z,13.30
2018-05-16T07:12:39.281Z,13.29
2018-05-16T07:13:39.231Z,13.08
2018-05-16T07:14:39.155Z,13.23
2018-05-16T07:15:39.092Z,13.24
2018-05-16T07:16:39.034Z,13.16
2018-05-16T07:17:38.967Z,13.24
2018-05-16T07:18:38.905Z,13.29
2018-05-16T07:19:38.841Z,13.23
2018-05-16T07:20:38.779Z,13.38
2018-05-16T07:21:38.715Z,13.32
2018-05-16T07:22:38.654Z,13.24
2018-05-16T07:23:38.591Z,13.24
2018-05-16T07:24:38.529Z,13.40
2018-05-16T07:25:38.468Z,13.38
2018-05-16T07:26:38.411Z,13.38
2018-05-16T07:27:38.344Z,13.45
2018-05-16T07:28:38.280Z,13.39
2018-05-16T07:29:38.217Z,13.40
2018-05-16T07:30:38.157Z,13.42
2018-05-16T07:31:38.096Z,13.40
2018-05-16T07:32:38.030Z,13.42
2018-05-16T07:33:37.966Z,13.45
2018-05-16T07:34:37.914Z,13.53
2018-05-16T07:35:37.841Z,13.49
2018-05-16T07:36:37.780Z,13.54
2018-05-16T07:37:37.716Z,13.53
2018-05-16T07:38:37.654Z,13.57
2018-05-16T07:39:37.596Z,13.54
2018-05-16T07:40:37.536Z,13.64
2018-05-16T07:41:37.467Z,13.67
2018-05-16T07:42:37.407Z,13.67
2018-05-16T07:43:37.343Z,13.68
2018-05-16T07:44:37.281Z,13.64
2018-05-16T07:45:37.218Z,13.61
2018-05-16T07:46:37.156Z,13.65
2018-05-16T07:47:37.094Z,13.64
2018-05-16T07:48:37.033Z,13.72
2018-05-16T07:49:36.971Z,13.64
2018-05-16T07:50:36.907Z,13.65
2018-05-16T07:51:36.844Z,13.60
2018-05-16T07:52:36.783Z,13.57
2018-05-16T07:53:36.721Z,13.54
2018-05-16T07:54:36.665Z,13.54
2018-05-16T07:55:36.596Z,13.53
2018-05-16T07:56:36.534Z,13.57
2018-05-16T07:57:36.471Z,13.47
2018-05-16T07:58:36.408Z,13.53
2018-05-16T07:59:36.346Z,13.53
2018-05-16T08:00:36.284Z,13.54
2018-05-16T08:01:36.222Z,13.40
2018-05-16T08:02:36.158Z,13.39
2018-05-16T08:03:36.099Z,13.47
2018-05-16T08:04:36.036Z,13.39
2018-05-16T08:05:35.973Z,13.43
2018-05-16T08:06:35.913Z,13.39
2018-05-16T08:07:35.849Z,13.43
2018-05-16T08:08:35.788Z,13.42
2018-05-16T08:09:35.725Z,13.42
2018-05-16T08:10:35.662Z,13.43
2018-05-16T08:11:35.601Z,13.43
2018-05-16T08:12:35.538Z,13.43
2018-05-16T08:13:35.475Z,13.24
2018-05-16T08:14:35.412Z,13.36
2018-05-16T08:15:35.352Z,13.29
2018-05-16T08:16:35.290Z,13.36
2018-05-16T08:17:35.224Z,13.29
2018-05-16T08:18:35.163Z,13.30
2018-05-16T08:19:35.103Z,13.23
2018-05-16T08:20:35.038Z,13.35
2018-05-16T08:21:34.976Z,13.26
2018-05-16T08:22:34.916Z,13.29
2018-05-16T08:23:34.854Z,13.36
2018-05-16T08:24:34.790Z,13.21
2018-05-16T08:25:34.728Z,13.20
2018-05-16T08:26:34.664Z,13.23
2018-05-16T08:27:34.613Z,13.13
2018-05-16T08:28:34.542Z,13.16
2018-05-16T08:29:34.475Z,13.19
2018-05-16T08:30:34.416Z,13.09
2018-05-16T08:31:34.355Z,13.11
2018-05-16T08:32:34.291Z,13.09
2018-05-16T08:33:34.227Z,13.17
2018-05-16T08:34:34.166Z,13.16
2018-05-16T08:35:34.103Z,13.23
2018-05-16T08:36:34.042Z,13.27
2018-05-16T08:37:33.981Z,13.27
2018-05-16T08:38:33.917Z,13.20
2018-05-16T08:39:33.852Z,13.24
2018-05-16T08:40:33.791Z,13.17
2018-05-16T08:41:33.728Z,13.23
2018-05-16T08:42:33.665Z,13.17
2018-05-16T08:43:33.606Z,13.19
2018-05-16T08:44:33.545Z,13.20
2018-05-16T08:45:33.478Z,13.20
2018-05-16T08:46:33.419Z,13.20
2018-05-16T08:47:33.352Z,13.05
2018-05-16T08:48:33.293Z,13.17
2018-05-16T08:49:33.229Z,13.13
2018-05-16T08:50:33.167Z,13.17
2018-05-16T08:51:33.105Z,13.17
2018-05-16T08:52:33.043Z,13.17
2018-05-16T08:53:32.981Z,13.24
2018-05-16T08:54:32.916Z,13.14
2018-05-16T08:55:32.857Z,13.17
2018-05-16T08:56:32.794Z,13.13
2018-05-16T08:57:32.730Z,13.24
2018-05-16T08:58:32.672Z,13.19
2018-05-16T08:59:32.606Z,13.14
2018-05-16T09:00:32.542Z,13.19
2018-05-16T09:01:32.480Z,13.17
2018-05-16T09:02:32.417Z,13.17
2018-05-16T09:03:32.363Z,13.16
2018-05-16T09:04:32.291Z,13.17
2018-05-16T09:05:32.239Z,13.21
2018-05-16T09:06:32.168Z,13.32
2018-05-16T09:07:32.112Z,13.20
2018-05-16T09:08:32.043Z,13.16
2018-05-16T09:09:31.980Z,13.24
2018-05-16T09:10:31.917Z,13.38
2018-05-16T09:11:31.861Z,13.21
2018-05-16T09:12:31.794Z,13.29
2018-05-16T09:13:31.730Z,13.32
2018-05-16T09:14:31.670Z,13.17
2018-05-16T09:15:31.605Z,13.30
2018-05-16T09:16:31.544Z,13.32
2018-05-16T09:17:31.481Z,13.24
2018-05-16T09:18:31.420Z,13.43
2018-05-16T09:19:31.356Z,13.36
2018-05-16T09:20:31.294Z,13.36
2018-05-16T09:21:31.231Z,13.36
2018-05-16T09:22:31.169Z,13.38
2018-05-16T09:23:31.107Z,13.36
2018-05-16T09:24:31.043Z,13.40
2018-05-16T09:25:30.987Z,13.40
2018-05-16T09:26:30.920Z,13.40
2018-05-16T09:27:30.857Z,13.53
2018-05-16T09:28:30.796Z,13.40
2018-05-16T09:29:30.732Z,13.45
2018-05-16T09:30:30.669Z,13.39
2018-05-16T09:31:30.609Z,13.35
2018-05-16T09:32:30.548Z,13.36
2018-05-16T09:33:30.483Z,13.36
2018-05-16T09:34:30.433Z,13.38
2018-05-16T09:35:30.358Z,13.35
2018-05-16T09:36:30.296Z,13.35
2018-05-16T09:37:30.232Z,13.38
2018-05-16T09:38:30.170Z,13.36
2018-05-16T09:39:30.110Z,13.38
2018-05-16T09:40:30.050Z,13.43
2018-05-16T09:41:29.983Z,13.40
2018-05-16T09:42:29.922Z,13.39
2018-05-16T09:43:29.860Z,13.35
2018-05-16T09:44:29.823Z,13.42
2018-05-16T09:45:29.737Z,13.45
2018-05-16T09:46:29.749Z,13.49
2018-05-16T09:47:29.610Z,13.58
2018-05-16T09:48:29.549Z,13.60
2018-05-16T09:49:29.485Z,13.60
2018-05-16T09:50:29.424Z,13.73
2018-05-16T09:51:29.433Z,13.65
2018-05-16T09:52:29.299Z,13.68
2018-05-16T09:53:29.237Z,13.71
2018-05-16T09:54:29.173Z,13.68
2018-05-16T09:55:29.116Z,13.65
2018-05-16T09:56:29.052Z,13.63
2018-05-16T09:57:28.989Z,13.55
2018-05-16T09:58:28.926Z,13.55
2018-05-16T09:59:28.865Z,13.61
2018-05-16T10:00:28.803Z,13.55
2018-05-16T10:01:28.752Z,13.57
2018-05-16T10:02:28.678Z,13.55
2018-05-16T10:03:28.619Z,13.54
2018-05-16T10:04:28.554Z,13.64
2018-05-16T10:05:28.492Z,13.67
2018-05-16T10:06:28.431Z,13.67
2018-05-16T10:07:28.367Z,13.73
2018-05-16T10:08:28.305Z,13.71
2018-05-16T10:09:28.239Z,13.79
2018-05-16T10:10:28.185Z,13.65
2018-05-16T10:11:28.128Z,13.73
2018-05-16T10:12:28.058Z,13.82
2018-05-16T10:13:27.995Z,13.88
2018-05-16T10:14:27.933Z,13.88
2018-05-16T10:15:27.872Z,14.01
2018-05-16T10:16:27.808Z,14.05
2018-05-16T10:17:27.748Z,14.00
2018-05-16T10:18:27.685Z,14.04
2018-05-16T10:19:27.625Z,14.11
2018-05-16T10:20:27.564Z,14.04
2018-05-16T10:21:27.499Z,14.00
2018-05-16T10:22:27.438Z,13.96
2018-05-16T10:23:27.377Z,13.98
2018-05-16T10:24:27.315Z,13.85
2018-05-16T10:25:27.252Z,13.96
2018-05-16T10:26:27.210Z,13.91
2018-05-16T10:27:27.129Z,13.98
2018-05-16T10:28:27.068Z,13.93
2018-05-16T10:29:27.006Z,13.93
2018-05-16T10:30:26.949Z,13.97
2018-05-16T10:31:26.883Z,13.93
2018-05-16T10:32:26.822Z,13.96
2018-05-16T10:33:26.763Z,14.09
2018-05-16T10:34:26.789Z,13.98
2018-05-16T10:35:26.636Z,13.94
2018-05-16T10:36:26.575Z,13.94
2018-05-16T10:37:26.511Z,14.01
2018-05-16T10:38:26.450Z,14.08
2018-05-16T10:39:26.393Z,14.12
2018-05-16T10:40:26.331Z,14.12
2018-05-16T10:41:26.270Z,14.15
2018-05-16T10:42:26.204Z,14.18
2018-05-16T10:43:26.141Z,14.19
2018-05-16T10:44:26.081Z,14.12
2018-05-16T10:45:26.019Z,14.19
2018-05-16T10:46:25.956Z,14.18
2018-05-16T10:47:25.909Z,14.11
2018-05-16T10:48:25.843Z,14.26
2018-05-16T10:49:25.772Z,14.19
2018-05-16T10:50:25.791Z,14.27
2018-05-16T10:51:25.649Z,14.26
2018-05-16T10:52:25.588Z,14.18
2018-05-16T10:53:25.591Z,14.27
2018-05-16T10:54:25.465Z,14.31
2018-05-16T10:55:25.403Z,14.31
2018-05-16T10:56:25.344Z,14.36
2018-05-16T10:57:25.294Z,14.30
2018-05-16T10:58:25.220Z,14.34
2018-05-16T10:59:25.156Z,14.37
2018-05-16T11:00:25.097Z,14.38
2018-05-16T11:01:25.033Z,14.48
2018-05-16T11:02:24.977Z,14.51
2018-05-16T11:03:24.951Z,14.52
2018-05-16T11:04:24.850Z,14.56
2018-05-16T11:05:24.788Z,14.52
2018-05-16T11:06:24.727Z,14.58
2018-05-16T11:07:24.663Z,14.49
2018-05-16T11:08:24.604Z,14.41
2018-05-16T11:09:24.544Z,14.49
2018-05-16T11:10:24.566Z,14.55
2018-05-16T11:11:24.417Z,14.58
2018-05-16T11:12:24.362Z,14.53
2018-05-16T11:13:24.298Z,14.61
2018-05-16T11:14:24.359Z,14.59
2018-05-16T11:15:24.173Z,14.61
2018-05-16T11:16:24.112Z,14.66
2018-05-16T11:17:24.050Z,14.79
2018-05-16T11:18:23.991Z,14.79
2018-05-16T11:19:23.928Z,14.77
2018-05-16T11:20:23.879Z,14.63
2018-05-16T11:21:23.864Z,14.67
2018-05-16T11:22:23.746Z,14.69
2018-05-16T11:23:23.685Z,14.74
2018-05-16T11:24:23.620Z,14.82
2018-05-16T11:25:23.559Z,14.77
2018-05-16T11:26:23.499Z,14.83
2018-05-16T11:27:23.439Z,14.78
2018-05-16T11:28:23.379Z,14.82
2018-05-16T11:29:23.323Z,14.78
2018-05-16T11:30:23.255Z,14.74
2018-05-16T11:31:23.193Z,14.82
2018-05-16T11:32:23.133Z,14.78
2018-05-16T11:33:23.071Z,14.89
2018-05-16T11:34:23.012Z,14.90
2018-05-16T11:35:22.950Z,14.97
2018-05-16T11:36:22.893Z,14.97
2018-05-16T11:37:22.826Z,14.99
2018-05-16T11:38:22.764Z,15.04
2018-05-16T11:39:22.708Z,14.96
2018-05-16T11:40:22.644Z,15.03
2018-05-16T11:41:22.583Z,14.99
2018-05-16T11:42:22.544Z,15.07
2018-05-16T11:43:22.461Z,15.05
2018-05-16T11:44:22.399Z,15.04
2018-05-16T11:45:22.338Z,15.03
2018-05-16T11:46:22.277Z,15.04
2018-05-16T11:47:22.219Z,15.04
2018-05-16T11:48:22.155Z,15.05
2018-05-16T11:49:22.093Z,15.19
2018-05-16T11:50:22.032Z,15.15
2018-05-16T11:51:21.973Z,15.14
2018-05-16T11:52:21.912Z,15.12
2018-05-16T11:53:21.852Z,15.10
2018-05-16T11:54:21.789Z,15.07
2018-05-16T11:55:21.731Z,15.05
2018-05-16T11:56:21.669Z,15.08
2018-05-16T11:57:21.605Z,15.07
2018-05-16T11:58:21.545Z,15.08
2018-05-16T11:59:21.588Z,15.12
2018-05-16T12:00:21.425Z,15.10
2018-05-16T12:01:21.361Z,15.05
2018-05-16T12:02:21.301Z,14.97
2018-05-16T12:03:21.240Z,15.04
2018-05-16T12:04:21.180Z,14.99
2018-05-16T12:05:21.117Z,14.92
2018-05-16T12:06:21.062Z,14.97
2018-05-16T12:07:20.997Z,14.89
2018-05-16T12:08:20.937Z,14.89
2018-05-16T12:09:20.874Z,14.79
2018-05-16T12:10:20.815Z,14.78
2018-05-16T12:11:20.753Z,14.79
2018-05-16T12:12:20.691Z,14.77
2018-05-16T12:13:20.630Z,14.67
2018-05-16T12:14:20.569Z,14.56
2018-05-16T12:15:20.509Z,14.69
2018-05-16T12:16:20.448Z,14.63
2018-05-16T12:17:20.385Z,14.61
2018-05-16T12:18:20.324Z,14.44
2018-05-16T12:19:20.269Z,14.45
2018-05-16T12:20:20.204Z,14.38
2018-05-16T12:21:20.140Z,14.48
2018-05-16T12:22:20.080Z,14.37
2018-05-16T12:23:20.019Z,14.46
2018-05-16T12:24:19.959Z,14.34
2018-05-16T12:25:19.896Z,14.30
2018-05-16T12:26:19.834Z,14.31
2018-05-16T12:27:19.773Z,14.28
2018-05-16T12:28:19.713Z,14.18
2018-05-16T12:29:19.781Z,14.27
2018-05-16T12:30:19.585Z,14.18
2018-05-16T12:31:19.526Z,14.23
2018-05-16T12:32:19.465Z,14.21
2018-05-16T12:33:19.404Z,14.34
2018-05-16T12:34:19.343Z,14.30
2018-05-16T12:35:19.280Z,14.36
2018-05-16T12:36:19.224Z,14.26
2018-05-16T12:37:19.159Z,14.28
2018-05-16T12:38:19.095Z,14.30
2018-05-16T12:39:19.034Z,14.33
2018-05-16T12:40:18.974Z,14.37
2018-05-16T12:41:18.912Z,14.33
2018-05-16T12:42:18.852Z,14.30
2018-05-16T12:43:18.789Z,14.37
2018-05-16T12:44:18.726Z,14.31
2018-05-16T12:45:18.664Z,14.26
2018-05-16T12:46:18.605Z,14.27
2018-05-16T12:47:18.538Z,14.30
2018-05-16T12:48:18.477Z,14.30
2018-05-16T12:49:18.429Z,14.33
2018-05-16T12:50:18.359Z,14.33
2018-05-16T12:51:18.296Z,14.28